createdAt,value
2018-05-18T00:01:16.172Z,10.60
2018-05-18T00:03:43.673Z,10.43
2018-05-18T00:06:11.092Z,12.53
2018-05-18T00:08:38.488Z,11.33
2018-05-18T00:11:05.901Z,10.00
2018-05-18T00:13:33.312Z,12.83
2018-05-18T00:16:00.706Z,14.20
2018-05-18T00:18:28.107Z,13.20
2018-05-18T00:20:55.529Z,13.47
2018-05-18T00:23:22.937Z,14.30
2018-05-18T00:25:50.337Z,17.00
2018-05-18T00:28:17.743Z,16.13
2018-05-18T00:30:45.139Z,16.93
2018-05-18T00:33:12.558Z,15.80
2018-05-18T00:35:40.065Z,14.93
2018-05-18T00:38:07.457Z,15.70
2018-05-18T00:40:34.962Z,17.60
2018-05-18T00:43:02.428Z,20.07
2018-05-18T00:45:29.881Z,21.87
2018-05-18T00:47:57.285Z,18.93
2018-05-18T00:50:24.720Z,18.90
2018-05-18T00:52:52.094Z,15.70
2018-05-18T00:55:31.501Z,15.00
2018-05-18T00:57:58.905Z,14.00
2018-05-18T01:00:26.318Z,13.73
2018-05-18T01:02:53.718Z,13.47
2018-05-18T01:05:21.126Z,15.63
2018-05-18T01:07:48.550Z,17.00
2018-05-18T01:10:15.952Z,17.73
2018-05-18T01:12:43.350Z,17.20
2018-05-18T01:15:10.756Z,14.83
2018-05-18T01:17:38.201Z,10.27
2018-05-18T01:20:05.656Z,13.40
2018-05-18T01:22:33.065Z,10.30
2018-05-18T01:25:00.487Z,9.30
2018-05-18T01:27:27.896Z,8.33
2018-05-18T01:29:55.280Z,8.70
2018-05-18T01:32:22.710Z,8.20
2018-05-18T01:34:50.193Z,7.87
2018-05-18T01:37:17.605Z,9.30
2018-05-18T01:39:45.005Z,9.30
2018-05-18T01:42:12.479Z,8.57
2018-05-18T01:44:39.905Z,7.30
2018-05-18T01:47:07.318Z,7.23
2018-05-18T01:49:34.730Z,8.40
2018-05-18T01:52:02.192Z,9.60
2018-05-18T01:54:29.590Z,10.87
2018-05-18T01:56:56.980Z,12.70
2018-05-18T01:59:24.385Z,15.57
2018-05-18T02:01:51.830Z,13.50
2018-05-18T02:04:19.241Z,14.60
2018-05-18T02:06:46.714Z,14.70
2018-05-18T02:09:14.124Z,14.80
2018-05-18T02:11:41.541Z,13.93
2018-05-18T02:14:08.952Z,14.87
2018-05-18T02:16:36.356Z,13.87
2018-05-18T02:19:03.785Z,14.03
2018-05-18T02:21:31.260Z,13.37
2018-05-18T02:23:58.717Z,14.50
2018-05-18T02:26:26.117Z,14.67
2018-05-18T02:28:53.528Z,14.73
2018-05-18T02:31:20.944Z,14.43
2018-05-18T02:33:49.312Z,13.50
2018-05-18T02:36:16.717Z,14.40
2018-05-18T02:38:44.130Z,13.27
2018-05-18T02:41:11.522Z,13.70
2018-05-18T02:43:38.966Z,13.97
2018-05-18T02:46:06.363Z,15.30
2018-05-18T02:48:33.782Z,15.93
2018-05-18T02:51:01.198Z,14.83
2018-05-18T02:53:28.603Z,13.77
2018-05-18T02:55:56.939Z,14.20
2018-05-18T02:58:24.337Z,13.27
2018-05-18T03:00:51.793Z,13.90
2018-05-18T03:03:19.233Z,11.67
2018-05-18T03:05:46.710Z,14.87
2018-05-18T03:08:14.113Z,12.93
2018-05-18T03:10:41.636Z,14.27
2018-05-18T03:13:09.067Z,13.03
2018-05-18T03:15:36.465Z,12.80
2018-05-18T03:18:03.909Z,11.57
2018-05-18T03:20:31.350Z,11.10
2018-05-18T03:22:58.819Z,11.57
2018-05-18T03:25:26.225Z,11.77
2018-05-18T03:27:53.665Z,10.07
2018-05-18T03:30:21.071Z,10.43
2018-05-18T03:32:48.553Z,11.60
2018-05-18T03:35:15.977Z,11.50
2018-05-18T03:37:43.374Z,9.90
2018-05-18T03:40:10.795Z,10.33
2018-05-18T03:42:38.212Z,11.20
2018-05-18T03:45:05.611Z,10.63
2018-05-18T03:47:33.027Z,12.27
2018-05-18T03:50:00.510Z,10.10
2018-05-18T03:52:27.910Z,9.27
2018-05-18T03:54:55.310Z,10.23
2018-05-18T03:57:22.706Z,9.10
2018-05-18T03:59:50.695Z,8.70
2018-05-18T04:02:30.085Z,9.47
2018-05-18T04:05:09.424Z,9.50
2018-05-18T04:10:41.409Z,7.43
2018-05-18T04:13:08.815Z,7.50
2018-05-18T04:15:36.217Z,7.40
2018-05-18T04:18:03.741Z,6.77
2018-05-18T04:20:31.141Z,6.53
2018-05-18T04:22:58.537Z,6.40
2018-05-18T04:25:25.947Z,7.63
2018-05-18T04:27:53.368Z,6.90
2018-05-18T04:30:20.892Z,8.80
2018-05-18T04:32:48.217Z,6.73
2018-05-18T04:35:15.621Z,6.20
2018-05-18T04:37:43.011Z,7.03
2018-05-18T04:40:10.409Z,7.33
2018-05-18T04:42:37.797Z,6.37
2018-05-18T04:45:05.257Z,6.60
2018-05-18T04:47:32.731Z,6.67
2018-05-18T04:50:00.130Z,5.90
2018-05-18T04:52:27.517Z,7.43
2018-05-18T04:54:54.922Z,6.77
2018-05-18T04:57:22.423Z,6.30
2018-05-18T04:59:49.863Z,8.83
2018-05-18T05:02:17.273Z,7.40
2018-05-18T05:04:44.773Z,8.23
2018-05-18T05:07:12.201Z,7.90
2018-05-18T05:09:39.646Z,7.20
2018-05-18T05:12:07.183Z,7.67
2018-05-18T05:14:34.661Z,6.63
2018-05-18T05:17:02.069Z,7.00
2018-05-18T05:19:29.483Z,7.17
2018-05-18T05:21:56.869Z,6.30
2018-05-18T05:24:24.272Z,6.30
2018-05-18T05:26:51.677Z,6.30
2018-05-18T05:29:19.102Z,6.60
2018-05-18T05:31:46.563Z,7.60
2018-05-18T05:34:13.986Z,6.40
2018-05-18T05:36:41.501Z,7.00
2018-05-18T05:39:08.942Z,8.00
2018-05-18T05:41:36.351Z,8.60
2018-05-18T05:44:03.838Z,7.30
2018-05-18T05:46:31.245Z,8.00
2018-05-18T05:48:58.677Z,7.13
2018-05-18T05:51:26.105Z,7.70
2018-05-18T05:53:53.525Z,7.13
2018-05-18T05:56:20.917Z,7.37
2018-05-18T05:58:48.344Z,6.80
2018-05-18T06:01:15.757Z,8.57
2018-05-18T06:03:43.152Z,9.50
2018-05-18T06:06:10.653Z,9.13
2018-05-18T06:08:38.069Z,12.13
2018-05-18T06:11:05.479Z,10.97
2018-05-18T06:13:32.881Z,12.13
2018-05-18T06:16:00.284Z,13.60
2018-05-18T06:18:27.699Z,13.50
2018-05-18T06:20:55.097Z,14.33
2018-05-18T06:23:22.567Z,15.10
2018-05-18T06:25:50.009Z,14.80
2018-05-18T06:28:17.410Z,15.40
2018-05-18T06:30:44.831Z,15.18
2018-05-18T06:33:12.257Z,14.70
2018-05-18T06:35:39.666Z,17.30
2018-05-18T06:38:07.103Z,15.40
2018-05-18T06:40:34.545Z,15.57
2018-05-18T06:43:01.936Z,14.57
2018-05-18T06:45:29.346Z,14.57
2018-05-18T06:47:56.855Z,14.17
2018-05-18T06:50:24.253Z,13.83
2018-05-18T06:52:51.693Z,15.43
2018-05-18T06:55:19.092Z,15.87
2018-05-18T06:57:46.500Z,15.50
2018-05-18T07:00:13.899Z,16.13
2018-05-18T07:02:41.304Z,15.90
2018-05-18T07:05:08.705Z,16.40
2018-05-18T07:07:36.110Z,15.10
2018-05-18T07:10:03.497Z,15.63
2018-05-18T07:12:30.908Z,14.30
2018-05-18T07:14:58.320Z,16.50
2018-05-18T07:17:25.730Z,13.43
2018-05-18T07:19:53.133Z,16.00
2018-05-18T07:22:20.596Z,15.23
2018-05-18T07:24:47.994Z,14.73
2018-05-18T07:27:15.419Z,14.43
2018-05-18T07:29:42.951Z,14.80
2018-05-18T07:32:10.362Z,14.80
2018-05-18T07:34:37.762Z,15.70
2018-05-18T07:37:05.173Z,15.77
2018-05-18T07:39:32.601Z,17.43
2018-05-18T07:42:00.069Z,16.40
2018-05-18T07:44:27.473Z,16.53
2018-05-18T07:46:54.882Z,14.13
2018-05-18T07:49:22.297Z,14.73
2018-05-18T07:51:49.686Z,15.53
2018-05-18T07:54:17.088Z,18.20
2018-05-18T07:56:44.526Z,17.00
2018-05-18T07:59:11.955Z,13.37
2018-05-18T08:01:39.388Z,13.47
2018-05-18T08:04:06.769Z,9.97
2018-05-18T08:06:34.165Z,9.73
2018-05-18T08:09:01.561Z,10.80
2018-05-18T08:11:29.057Z,8.20
2018-05-18T08:13:56.373Z,8.87
2018-05-18T08:16:23.833Z,8.17
2018-05-18T08:18:51.229Z,8.10
2018-05-18T08:21:18.645Z,9.30
2018-05-18T08:23:46.038Z,8.67
2018-05-18T08:26:13.433Z,8.70
2018-05-18T08:28:52.595Z,10.10
2018-05-18T08:31:20.001Z,8.40
2018-05-18T08:33:47.388Z,10.87
2018-05-18T08:36:14.880Z,12.40
2018-05-18T08:38:42.280Z,14.10
2018-05-18T08:41:09.784Z,14.17
2018-05-18T08:43:37.169Z,16.13
2018-05-18T08:46:04.678Z,19.13
2018-05-18T08:48:32.081Z,15.80
2018-05-18T08:50:59.493Z,17.20
2018-05-18T08:53:26.881Z,12.40
2018-05-18T08:55:54.312Z,13.40
2018-05-18T08:58:21.745Z,14.63
2018-05-18T09:00:49.211Z,13.00
2018-05-18T09:03:16.630Z,12.53
2018-05-18T09:05:44.087Z,14.90
2018-05-18T09:08:11.585Z,11.93
2018-05-18T09:10:39.158Z,9.87
2018-05-18T09:13:06.560Z,10.53
2018-05-18T09:15:33.975Z,11.03
2018-05-18T09:18:01.498Z,9.73
2018-05-18T09:20:29.001Z,11.60
2018-05-18T09:22:56.412Z,13.40
2018-05-18T09:25:23.809Z,11.00
2018-05-18T09:27:51.226Z,10.97
2018-05-18T09:30:18.733Z,13.13
2018-05-18T09:32:46.150Z,12.17
2018-05-18T09:35:13.537Z,16.40
2018-05-18T09:37:40.984Z,13.53
2018-05-18T09:40:08.377Z,10.07
2018-05-18T09:42:35.781Z,7.23
2018-05-18T09:45:03.317Z,8.10
2018-05-18T09:47:30.685Z,8.70
2018-05-18T09:49:58.085Z,7.43
2018-05-18T09:52:25.493Z,10.17
2018-05-18T09:54:53.155Z,10.00
2018-05-18T09:57:20.497Z,11.03
2018-05-18T09:59:47.895Z,8.47
2018-05-18T10:02:15.412Z,10.37
2018-05-18T10:04:42.862Z,10.00
2018-05-18T10:07:10.314Z,8.57
2018-05-18T10:09:37.716Z,7.70
2018-05-18T10:12:05.225Z,8.93
2018-05-18T10:14:32.693Z,7.63
2018-05-18T10:17:00.087Z,8.07
2018-05-18T10:19:27.617Z,8.93
2018-05-18T10:21:55.005Z,8.63
2018-05-18T10:24:22.425Z,8.83
2018-05-18T10:26:49.825Z,8.07
2018-05-18T10:29:17.247Z,6.47
2018-05-18T10:31:44.633Z,6.23
2018-05-18T10:34:12.045Z,6.43
2018-05-18T10:36:39.466Z,7.90
2018-05-18T10:39:06.913Z,6.47
2018-05-18T10:41:34.373Z,8.37
2018-05-18T10:44:01.832Z,7.17
2018-05-18T10:46:29.285Z,8.10
2018-05-18T10:48:57.625Z,7.03
2018-05-18T10:51:25.021Z,6.57
2018-05-18T10:53:52.478Z,7.00
2018-05-18T10:56:19.934Z,9.13
2018-05-18T10:58:47.345Z,7.87
2018-05-18T11:01:14.984Z,7.30
2018-05-18T11:03:42.407Z,8.07
2018-05-18T11:06:09.831Z,7.37
2018-05-18T11:08:37.332Z,7.93
2018-05-18T11:11:04.713Z,7.47
2018-05-18T11:13:32.111Z,7.10
2018-05-18T11:15:59.531Z,7.03
2018-05-18T11:18:26.966Z,6.43
2018-05-18T11:20:54.352Z,6.97
2018-05-18T11:23:21.748Z,7.60
2018-05-18T11:25:49.209Z,6.80
2018-05-18T11:28:16.685Z,8.07
2018-05-18T11:30:44.129Z,8.20
2018-05-18T11:33:11.575Z,8.90
2018-05-18T11:35:38.953Z,8.60
2018-05-18T11:38:06.361Z,7.97
2018-05-18T11:40:33.803Z,7.83
2018-05-18T11:43:01.370Z,7.00
2018-05-18T11:45:28.771Z,8.10
2018-05-18T11:47:57.175Z,9.63
2018-05-18T11:50:24.610Z,8.90
2018-05-18T11:52:52.041Z,7.97
2018-05-18T11:55:19.433Z,7.30
2018-05-18T11:57:46.848Z,7.00
2018-05-18T12:00:14.324Z,8.03
2018-05-18T12:02:41.823Z,6.77
2018-05-18T12:05:09.225Z,7.80
2018-05-18T12:07:36.628Z,6.80
2018-05-18T12:10:04.048Z,7.30
2018-05-18T12:12:31.550Z,8.00
2018-05-18T12:14:58.953Z,8.20
2018-05-18T12:17:26.353Z,8.23
2018-05-18T12:19:53.817Z,7.60
2018-05-18T12:22:21.255Z,6.93
2018-05-18T12:24:48.677Z,9.10
2018-05-18T12:27:16.780Z,7.20
2018-05-18T12:29:44.209Z,7.27
2018-05-18T12:32:11.596Z,6.50
2018-05-18T12:34:39.020Z,7.53
2018-05-18T12:37:06.393Z,7.40
2018-05-18T12:39:33.821Z,6.93
2018-05-18T12:42:01.257Z,7.30
2018-05-18T12:44:28.816Z,6.70
2018-05-18T12:46:56.227Z,7.77
2018-05-18T12:49:23.653Z,7.60
2018-05-18T12:51:51.092Z,6.83
2018-05-18T12:54:18.567Z,8.03
2018-05-18T12:56:46.049Z,7.93
2018-05-18T12:59:13.560Z,6.70
2018-05-18T13:01:40.979Z,6.97
2018-05-18T13:04:08.534Z,7.73
2018-05-18T13:06:35.941Z,6.60
2018-05-18T13:09:03.391Z,6.50
2018-05-18T13:11:30.962Z,7.93
2018-05-18T13:13:58.989Z,7.97
2018-05-18T13:16:26.512Z,7.30
2018-05-18T13:18:53.900Z,7.03
2018-05-18T13:21:21.301Z,6.53
2018-05-18T13:23:48.738Z,6.77
2018-05-18T13:26:16.138Z,6.83
2018-05-18T13:28:43.577Z,7.47
2018-05-18T13:31:10.976Z,8.03
2018-05-18T13:33:38.378Z,10.33
2018-05-18T13:36:05.825Z,7.30
2018-05-18T13:38:33.261Z,7.20
2018-05-18T13:41:00.634Z,7.70
2018-05-18T13:43:28.037Z,7.50
2018-05-18T13:45:55.445Z,8.53
2018-05-18T13:48:22.857Z,8.03
2018-05-18T13:50:50.278Z,7.03
2018-05-18T13:53:17.736Z,7.70
2018-05-18T13:55:45.130Z,7.83
2018-05-18T13:58:12.567Z,7.13
2018-05-18T14:00:39.977Z,6.67
2018-05-18T14:03:07.405Z,7.57
2018-05-18T14:05:34.829Z,7.80
2018-05-18T14:08:02.265Z,6.90
2018-05-18T14:10:29.657Z,9.23
2018-05-18T14:12:57.060Z,7.50
2018-05-18T14:15:24.445Z,8.43
2018-05-18T14:17:51.865Z,8.27
2018-05-18T14:20:19.257Z,8.73
2018-05-18T14:22:46.689Z,8.60
2018-05-18T14:25:14.131Z,8.27
2018-05-18T14:27:41.588Z,8.60
2018-05-18T14:30:09.070Z,8.43
2018-05-18T14:32:36.465Z,10.43
2018-05-18T14:35:03.954Z,10.10
2018-05-18T14:37:31.350Z,9.17
2018-05-18T14:39:58.777Z,9.60
2018-05-18T14:42:26.203Z,9.60
2018-05-18T14:44:53.687Z,10.83
2018-05-18T14:47:21.384Z,10.13
2018-05-18T14:49:48.810Z,8.90
2018-05-18T14:52:16.289Z,8.77
2018-05-18T14:54:43.711Z,9.10
2018-05-18T14:57:11.144Z,9.27
2018-05-18T14:59:38.603Z,11.17
2018-05-18T15:02:06.574Z,11.47
2018-05-18T15:04:33.976Z,13.87
2018-05-18T15:07:01.494Z,13.57
2018-05-18T15:09:28.901Z,13.97
2018-05-18T15:11:56.389Z,15.53
2018-05-18T15:14:23.801Z,12.70
2018-05-18T15:16:51.286Z,12.30
2018-05-18T15:19:18.705Z,12.90
2018-05-18T15:21:46.179Z,12.63
2018-05-18T15:24:13.583Z,13.20
2018-05-18T15:26:41.085Z,12.43
2018-05-18T15:29:08.557Z,12.37
2018-05-18T15:31:36.001Z,12.43
2018-05-18T15:34:03.410Z,13.80
2018-05-18T15:36:30.936Z,15.10
2018-05-18T15:38:58.363Z,12.50
2018-05-18T15:41:25.766Z,14.10
2018-05-18T15:43:53.177Z,14.00
2018-05-18T15:46:20.582Z,15.77
2018-05-18T15:48:47.992Z,16.67
2018-05-18T15:51:15.465Z,14.03
2018-05-18T15:53:42.871Z,13.90
2018-05-18T15:56:10.399Z,14.70
2018-05-18T15:58:37.840Z,14.33
2018-05-18T16:01:05.304Z,14.37
2018-05-18T16:03:32.721Z,13.17
2018-05-18T16:06:00.126Z,14.53
2018-05-18T16:08:27.529Z,16.87
2018-05-18T16:10:54.941Z,14.70
2018-05-18T16:13:22.345Z,14.67
2018-05-18T16:15:49.753Z,14.23
2018-05-18T16:18:17.297Z,15.03
2018-05-18T16:20:44.778Z,14.27
2018-05-18T16:23:12.274Z,14.60
2018-05-18T16:25:39.747Z,11.17
2018-05-18T16:28:07.207Z,13.10
2018-05-18T16:30:34.597Z,14.03
2018-05-18T16:33:02.099Z,12.87
2018-05-18T16:35:29.565Z,13.37
2018-05-18T16:37:56.993Z,12.67
2018-05-18T16:40:24.562Z,12.00
2018-05-18T16:42:51.977Z,14.53
2018-05-18T16:45:19.401Z,14.63
2018-05-18T16:47:46.805Z,14.67
2018-05-18T16:50:14.265Z,17.93
2018-05-18T16:52:41.701Z,24.00
2018-05-18T16:55:09.166Z,13.70
2018-05-18T16:57:36.565Z,13.67
2018-05-18T17:00:04.086Z,14.40
2018-05-18T17:02:31.476Z,13.20
2018-05-18T17:04:58.989Z,14.10
2018-05-18T17:07:26.457Z,12.33
2018-05-18T17:09:53.899Z,13.10
2018-05-18T17:12:21.360Z,11.77
2018-05-18T17:14:48.729Z,12.30
2018-05-18T17:17:16.185Z,10.33
2018-05-18T17:19:43.602Z,11.37
2018-05-18T17:22:10.987Z,10.93
2018-05-18T17:24:38.402Z,14.80
2018-05-18T17:27:05.802Z,14.60
2018-05-18T17:29:33.263Z,15.87
2018-05-18T17:32:00.710Z,14.43
2018-05-18T17:34:28.110Z,13.57
2018-05-18T17:36:55.521Z,14.03
2018-05-18T17:39:22.941Z,15.33
2018-05-18T17:41:50.345Z,15.47
2018-05-18T17:44:17.785Z,14.40
2018-05-18T17:46:45.251Z,14.87
2018-05-18T17:49:12.657Z,15.10
2018-05-18T17:51:40.369Z,14.87
2018-05-18T17:54:07.860Z,14.87
2018-05-18T17:56:35.254Z,14.33
2018-05-18T17:59:02.686Z,13.93
2018-05-18T18:01:30.142Z,14.77
2018-05-18T18:03:57.572Z,15.90
2018-05-18T18:06:24.977Z,16.70
2018-05-18T18:08:52.385Z,15.27
2018-05-18T18:11:19.799Z,13.90
2018-05-18T18:13:47.201Z,13.73
2018-05-18T18:16:14.689Z,14.13
2018-05-18T18:18:42.146Z,13.90
2018-05-18T18:21:09.565Z,16.37
2018-05-18T18:23:37.523Z,14.83
2018-05-18T18:26:05.139Z,15.23
2018-05-18T18:28:32.562Z,15.23
2018-05-18T18:30:59.952Z,13.87
2018-05-18T18:33:27.342Z,13.03
2018-05-18T18:35:54.750Z,12.70
2018-05-18T18:38:22.926Z,13.50
2018-05-18T18:40:50.377Z,13.17
2018-05-18T18:43:17.781Z,13.87
2018-05-18T18:45:45.189Z,13.60
2018-05-18T18:48:12.593Z,12.90
2018-05-18T18:50:40.010Z,12.77
2018-05-18T18:53:07.470Z,12.57
2018-05-18T18:55:34.919Z,11.23
2018-05-18T18:58:02.418Z,12.93
2018-05-18T19:00:29.820Z,11.60
2018-05-18T19:02:57.296Z,11.27
2018-05-18T19:05:24.769Z,12.07
2018-05-18T19:07:52.212Z,10.90
2018-05-18T19:10:19.614Z,11.10
2018-05-18T19:12:47.049Z,11.27
2018-05-18T19:15:14.466Z,11.90
2018-05-18T19:17:41.873Z,10.60
2018-05-18T19:20:09.343Z,10.97
2018-05-18T19:22:36.754Z,11.40
2018-05-18T19:25:04.208Z,12.23
2018-05-18T19:27:31.714Z,12.93
2018-05-18T19:29:59.149Z,11.37
2018-05-18T19:32:26.648Z,11.83
2018-05-18T19:34:54.482Z,13.40
2018-05-18T19:37:21.893Z,10.97
2018-05-18T19:39:49.320Z,11.60
2018-05-18T19:42:16.734Z,10.60
2018-05-18T19:44:44.200Z,11.60
2018-05-18T19:47:11.701Z,11.00
2018-05-18T19:49:39.134Z,10.73
2018-05-18T19:52:06.594Z,13.63
2018-05-18T19:54:34.028Z,10.20
2018-05-18T19:57:01.467Z,11.20
2018-05-18T19:59:28.957Z,11.97
2018-05-18T20:01:56.366Z,11.43
2018-05-18T20:04:23.756Z,12.37
2018-05-18T20:06:51.173Z,11.90
2018-05-18T20:09:18.572Z,12.10
2018-05-18T20:11:46.022Z,12.60
2018-05-18T20:14:13.444Z,12.63
2018-05-18T20:16:40.886Z,12.23
2018-05-18T20:19:08.302Z,11.20
2018-05-18T20:21:35.793Z,11.63
2018-05-18T20:24:03.201Z,10.53
2018-05-18T20:26:30.696Z,15.23
2018-05-18T20:28:58.171Z,13.60
2018-05-18T20:31:25.620Z,13.07
2018-05-18T20:33:53.493Z,14.30
2018-05-18T20:36:20.949Z,12.63
2018-05-18T20:38:48.358Z,11.60
2018-05-18T20:41:15.818Z,11.97
2018-05-18T20:43:44.289Z,13.00
2018-05-18T20:46:11.762Z,11.73
2018-05-18T20:48:40.125Z,12.17
2018-05-18T20:51:07.574Z,11.90
2018-05-18T20:53:35.025Z,11.30
2018-05-18T20:56:02.465Z,11.10
2018-05-18T20:58:29.920Z,11.30
2018-05-18T21:00:57.269Z,13.10
2018-05-18T21:03:24.696Z,12.13
2018-05-18T21:05:52.080Z,12.03
2018-05-18T21:08:19.481Z,11.67
2018-05-18T21:10:46.892Z,11.93
2018-05-18T21:13:14.307Z,11.70
2018-05-18T21:15:41.729Z,11.43
2018-05-18T21:18:09.165Z,10.80
2018-05-18T21:20:36.592Z,9.63
2018-05-18T21:23:04.001Z,8.30
2018-05-18T21:25:31.408Z,8.47
2018-05-18T21:27:58.900Z,8.30
2018-05-18T21:30:26.336Z,8.60
2018-05-18T21:32:53.720Z,8.50
2018-05-18T21:35:21.117Z,6.70
2018-05-18T21:37:48.637Z,7.33
2018-05-18T21:40:16.094Z,6.90
2018-05-18T21:42:43.538Z,7.93
2018-05-18T21:45:10.986Z,7.40
2018-05-18T21:47:38.378Z,7.20
2018-05-18T21:50:05.809Z,6.90
2018-05-18T21:52:33.223Z,7.63
2018-05-18T21:55:00.694Z,6.10
2018-05-18T21:57:28.093Z,6.27
2018-05-18T21:59:55.485Z,7.13
2018-05-18T22:02:22.953Z,7.23
2018-05-18T22:04:50.351Z,6.00
2018-05-18T22:07:17.765Z,5.83
2018-05-18T22:09:45.182Z,5.97
2018-05-18T22:12:12.692Z,6.70
2018-05-18T22:14:40.149Z,6.80
2018-05-18T22:17:07.542Z,7.30
2018-05-18T22:19:34.945Z,6.60
2018-05-18T22:22:02.683Z,8.13
2018-05-18T22:24:30.070Z,6.00
2018-05-18T22:26:57.470Z,6.37
2018-05-18T22:29:24.878Z,6.10
2018-05-18T22:31:52.293Z,6.83
2018-05-18T22:34:19.685Z,7.10
2018-05-18T22:36:47.103Z,8.20
2018-05-18T22:39:14.491Z,7.17
2018-05-18T22:41:41.895Z,7.80
2018-05-18T22:44:09.293Z,7.17
2018-05-18T22:46:36.710Z,6.47
2018-05-18T22:49:04.185Z,7.53
2018-05-18T22:51:31.653Z,6.97
2018-05-18T22:53:59.050Z,7.70
2018-05-18T22:56:26.471Z,7.53
2018-05-18T22:58:53.900Z,6.27
2018-05-18T23:01:21.305Z,7.40
2018-05-18T23:03:48.801Z,7.50
2018-05-18T23:06:16.225Z,7.33
2018-05-18T23:08:43.662Z,7.90
2018-05-18T23:11:11.117Z,7.70
2018-05-18T23:13:38.582Z,8.00
2018-05-18T23:16:05.986Z,7.20
2018-05-18T23:18:33.392Z,6.90
2018-05-18T23:21:00.854Z,7.17
2018-05-18T23:23:28.254Z,7.67
2018-05-18T23:25:55.684Z,7.70
2018-05-18T23:28:23.106Z,8.27
2018-05-18T23:30:50.525Z,8.17
2018-05-18T23:33:17.921Z,7.17
2018-05-18T23:35:45.326Z,6.57
2018-05-18T23:38:12.712Z,7.00
2018-05-18T23:40:40.189Z,9.00
2018-05-18T23:43:07.605Z,7.93
2018-05-18T23:45:35.009Z,7.23
2018-05-18T23:48:02.437Z,7.30
2018-05-18T23:50:29.829Z,7.83
2018-05-18T23:52:57.310Z,7.87
2018-05-18T23:55:24.655Z,7.70
2018-05-18T23:57:52.137Z,7.90
